sensor_id;sensor_type;location;lat;lon;timestamp;P1;durP1;ratioP1;P2;durP2;ratioP2
78131;SDS011;67381;47.672;9.380;2023-02-28T00:00:53;13.05;;;6.55;;
78131;SDS011;67381;47.672;9.380;2023-02-28T00:03:20;8.63;;;5.22;;
78131;SDS011;67381;47.672;9.380;2023-02-28T00:05:48;10.63;;;6.55;;
78131;SDS011;67381;47.672;9.380;2023-02-28T00:08:15;11.85;;;5.95;;
78131;SDS011;67381;47.672;9.380;2023-02-28T00:10:43;9.57;;;6.78;;
78131;SDS011;67381;47.672;9.380;2023-02-28T00:13:10;10.82;;;6.45;;
78131;SDS011;67381;47.672;9.380;2023-02-28T00:15:37;8.88;;;5.50;;
78131;SDS011;67381;47.672;9.380;2023-02-28T00:18:05;9.27;;;6.25;;
78131;SDS011;67381;47.672;9.380;2023-02-28T00:20:32;8.68;;;5.30;;
78131;SDS011;67381;47.672;9.380;2023-02-28T00:22:59;8.55;;;6.72;;
78131;SDS011;67381;47.672;9.380;2023-02-28T00:25:26;8.57;;;5.75;;
78131;SDS011;67381;47.672;9.380;2023-02-28T00:27:53;8.63;;;6.43;;
78131;SDS011;67381;47.672;9.380;2023-02-28T00:30:21;8.15;;;5.45;;
78131;SDS011;67381;47.672;9.380;2023-02-28T00:32:49;9.43;;;5.97;;
78131;SDS011;67381;47.672;9.380;2023-02-28T00:35:17;9.00;;;6.45;;
78131;SDS011;67381;47.672;9.380;2023-02-28T00:37:45;10.05;;;6.75;;
78131;SDS011;67381;47.672;9.380;2023-02-28T00:40:12;11.70;;;5.47;;
78131;SDS011;67381;47.672;9.380;2023-02-28T00:42:39;8.60;;;5.47;;
78131;SDS011;67381;47.672;9.380;2023-02-28T00:45:07;9.68;;;6.47;;
78131;SDS011;67381;47.672;9.380;2023-02-28T00:47:37;10.15;;;6.28;;
78131;SDS011;67381;47.672;9.380;2023-02-28T00:50:05;8.65;;;6.75;;
78131;SDS011;67381;47.672;9.380;2023-02-28T00:52:33;7.10;;;4.93;;
78131;SDS011;67381;47.672;9.380;2023-02-28T00:55:00;11.65;;;7.40;;
78131;SDS011;67381;47.672;9.380;2023-02-28T00:57:27;7.68;;;5.03;;
78131;SDS011;67381;47.672;9.380;2023-02-28T00:59:54;8.23;;;6.47;;
78131;SDS011;67381;47.672;9.380;2023-02-28T01:02:22;11.38;;;5.57;;
78131;SDS011;67381;47.672;9.380;2023-02-28T01:04:49;8.38;;;6.40;;
78131;SDS011;67381;47.672;9.380;2023-02-28T01:07:17;9.48;;;7.00;;
78131;SDS011;67381;47.672;9.380;2023-02-28T01:09:44;9.27;;;7.10;;
78131;SDS011;67381;47.672;9.380;2023-02-28T01:12:11;9.00;;;5.38;;
78131;SDS011;67381;47.672;9.380;2023-02-28T01:14:38;9.02;;;5.93;;
78131;SDS011;67381;47.672;9.380;2023-02-28T01:17:05;11.88;;;6.57;;
78131;SDS011;67381;47.672;9.380;2023-02-28T01:19:33;9.80;;;6.72;;
78131;SDS011;67381;47.672;9.380;2023-02-28T01:22:01;7.57;;;5.20;;
78131;SDS011;67381;47.672;9.380;2023-02-28T01:24:29;9.93;;;7.32;;
78131;SDS011;67381;47.672;9.380;2023-02-28T01:26:57;8.55;;;5.70;;
78131;SDS011;67381;47.672;9.380;2023-02-28T01:29:24;9.68;;;6.55;;
78131;SDS011;67381;47.672;9.380;2023-02-28T01:31:51;10.93;;;6.78;;
78131;SDS011;67381;47.672;9.380;2023-02-28T01:34:19;8.50;;;5.93;;
78131;SDS011;67381;47.672;9.380;2023-02-28T01:36:46;8.48;;;6.60;;
78131;SDS011;67381;47.672;9.380;2023-02-28T01:39:13;8.98;;;5.43;;
78131;SDS011;67381;47.672;9.380;2023-02-28T01:41:41;8.25;;;5.95;;
78131;SDS011;67381;47.672;9.380;2023-02-28T01:47:13;11.77;;;6.25;;
78131;SDS011;67381;47.672;9.380;2023-02-28T01:49:41;8.57;;;5.22;;
78131;SDS011;67381;47.672;9.380;2023-02-28T01:52:08;9.32;;;6.40;;
78131;SDS011;67381;47.672;9.380;2023-02-28T01:54:45;8.65;;;5.68;;
78131;SDS011;67381;47.672;9.380;2023-02-28T01:57:16;9.25;;;6.53;;
78131;SDS011;67381;47.672;9.380;2023-02-28T01:59:47;8.35;;;6.07;;
78131;SDS011;67381;47.672;9.380;2023-02-28T02:02:19;9.07;;;5.72;;
78131;SDS011;67381;47.672;9.380;2023-02-28T02:07:24;11.00;;;5.72;;
78131;SDS011;67381;47.672;9.380;2023-02-28T02:10:27;8.43;;;6.47;;
78131;SDS011;67381;47.672;9.380;2023-02-28T02:15:24;9.65;;;5.70;;
78131;SDS011;67381;47.672;9.380;2023-02-28T02:17:57;9.02;;;5.85;;
78131;SDS011;67381;47.672;9.380;2023-02-28T02:23:43;15.00;;;6.05;;
78131;SDS011;67381;47.672;9.380;2023-02-28T02:29:08;7.57;;;6.43;;
78131;SDS011;67381;47.672;9.380;2023-02-28T02:40:30;7.85;;;6.13;;
78131;SDS011;67381;47.672;9.380;2023-02-28T02:43:10;9.75;;;5.93;;
78131;SDS011;67381;47.672;9.380;2023-02-28T02:45:46;7.18;;;5.38;;
78131;SDS011;67381;47.672;9.380;2023-02-28T02:48:36;7.93;;;5.55;;
78131;SDS011;67381;47.672;9.380;2023-02-28T02:51:07;9.10;;;5.68;;
78131;SDS011;67381;47.672;9.380;2023-02-28T02:53:41;7.35;;;5.70;;
78131;SDS011;67381;47.672;9.380;2023-02-28T02:56:12;7.45;;;5.72;;
78131;SDS011;67381;47.672;9.380;2023-02-28T02:58:41;10.07;;;6.55;;
78131;SDS011;67381;47.672;9.380;2023-02-28T03:01:16;10.43;;;5.68;;
78131;SDS011;67381;47.672;9.380;2023-02-28T03:03:58;8.15;;;6.07;;
78131;SDS011;67381;47.672;9.380;2023-02-28T03:06:28;7.90;;;5.50;;
78131;SDS011;67381;47.672;9.380;2023-02-28T03:08:55;6.65;;;4.97;;
78131;SDS011;67381;47.672;9.380;2023-02-28T03:11:23;7.78;;;5.18;;
78131;SDS011;67381;47.672;9.380;2023-02-28T03:24:40;9.10;;;5.43;;
78131;SDS011;67381;47.672;9.380;2023-02-28T03:27:33;8.60;;;4.97;;
78131;SDS011;67381;47.672;9.380;2023-02-28T03:33:02;5.75;;;3.88;;
78131;SDS011;67381;47.672;9.380;2023-02-28T03:35:43;7.57;;;4.78;;
78131;SDS011;67381;47.672;9.380;2023-02-28T03:38:23;7.07;;;4.97;;
78131;SDS011;67381;47.672;9.380;2023-02-28T03:41:00;6.97;;;5.35;;
78131;SDS011;67381;47.672;9.380;2023-02-28T03:43:32;7.70;;;5.05;;
78131;SDS011;67381;47.672;9.380;2023-02-28T03:46:02;10.00;;;6.00;;
78131;SDS011;67381;47.672;9.380;2023-02-28T03:48:39;11.30;;;4.97;;
78131;SDS011;67381;47.672;9.380;2023-02-28T03:51:18;8.30;;;4.72;;
78131;SDS011;67381;47.672;9.380;2023-02-28T03:53:53;7.90;;;5.90;;
78131;SDS011;67381;47.672;9.380;2023-02-28T03:56:31;5.88;;;4.57;;
78131;SDS011;67381;47.672;9.380;2023-02-28T03:59:05;7.15;;;5.38;;
78131;SDS011;67381;47.672;9.380;2023-02-28T04:04:05;7.20;;;4.93;;
78131;SDS011;67381;47.672;9.380;2023-02-28T04:06:33;6.88;;;5.15;;
78131;SDS011;67381;47.672;9.380;2023-02-28T04:09:01;7.18;;;5.75;;
78131;SDS011;67381;47.672;9.380;2023-02-28T04:11:38;5.68;;;4.10;;
78131;SDS011;67381;47.672;9.380;2023-02-28T04:14:07;7.53;;;5.70;;
78131;SDS011;67381;47.672;9.380;2023-02-28T04:16:35;6.53;;;5.03;;
78131;SDS011;67381;47.672;9.380;2023-02-28T04:19:04;8.50;;;5.68;;
78131;SDS011;67381;47.672;9.380;2023-02-28T04:21:36;7.63;;;5.45;;
78131;SDS011;67381;47.672;9.380;2023-02-28T04:24:06;8.40;;;5.78;;
78131;SDS011;67381;47.672;9.380;2023-02-28T04:26:35;9.25;;;5.97;;
78131;SDS011;67381;47.672;9.380;2023-02-28T04:29:04;8.10;;;4.82;;
78131;SDS011;67381;47.672;9.380;2023-02-28T04:31:31;7.60;;;5.43;;
78131;SDS011;67381;47.672;9.380;2023-02-28T04:33:59;7.40;;;5.03;;
78131;SDS011;67381;47.672;9.380;2023-02-28T04:36:27;10.13;;;6.75;;
78131;SDS011;67381;47.672;9.380;2023-02-28T04:38:54;11.70;;;5.45;;
78131;SDS011;67381;47.672;9.380;2023-02-28T04:41:22;13.80;;;6.00;;
78131;SDS011;67381;47.672;9.380;2023-02-28T04:43:53;7.97;;;5.40;;
78131;SDS011;67381;47.672;9.380;2023-02-28T04:46:20;7.88;;;5.28;;
78131;SDS011;67381;47.672;9.380;2023-02-28T04:48:47;6.43;;;5.45;;
78131;SDS011;67381;47.672;9.380;2023-02-28T04:51:15;8.40;;;5.47;;
78131;SDS011;67381;47.672;9.380;2023-02-28T04:53:44;9.50;;;6.50;;
78131;SDS011;67381;47.672;9.380;2023-02-28T04:56:13;10.23;;;5.93;;
78131;SDS011;67381;47.672;9.380;2023-02-28T04:58:41;8.10;;;5.78;;
78131;SDS011;67381;47.672;9.380;2023-02-28T05:03:53;7.80;;;4.88;;
78131;SDS011;67381;47.672;9.380;2023-02-28T05:06:23;8.63;;;5.30;;
78131;SDS011;67381;47.672;9.380;2023-02-28T05:08:51;8.38;;;6.13;;
78131;SDS011;67381;47.672;9.380;2023-02-28T05:13:51;10.32;;;6.68;;
78131;SDS011;67381;47.672;9.380;2023-02-28T05:16:18;10.55;;;6.10;;
78131;SDS011;67381;47.672;9.380;2023-02-28T05:18:46;9.90;;;6.50;;
78131;SDS011;67381;47.672;9.380;2023-02-28T05:21:24;7.35;;;5.53;;
78131;SDS011;67381;47.672;9.380;2023-02-28T05:23:52;8.52;;;6.10;;
78131;SDS011;67381;47.672;9.380;2023-02-28T05:26:20;9.73;;;5.63;;
78131;SDS011;67381;47.672;9.380;2023-02-28T05:28:47;8.77;;;6.25;;
78131;SDS011;67381;47.672;9.380;2023-02-28T05:31:15;8.13;;;5.57;;
78131;SDS011;67381;47.672;9.380;2023-02-28T05:33:42;10.23;;;6.15;;
78131;SDS011;67381;47.672;9.380;2023-02-28T05:36:09;10.57;;;6.50;;
78131;SDS011;67381;47.672;9.380;2023-02-28T05:38:36;9.25;;;5.47;;
78131;SDS011;67381;47.672;9.380;2023-02-28T05:41:05;8.77;;;5.97;;
78131;SDS011;67381;47.672;9.380;2023-02-28T05:43:34;9.02;;;7.00;;
78131;SDS011;67381;47.672;9.380;2023-02-28T05:46:05;10.65;;;6.93;;
78131;SDS011;67381;47.672;9.380;2023-02-28T05:48:34;9.80;;;6.65;;
78131;SDS011;67381;47.672;9.380;2023-02-28T05:51:02;8.30;;;5.03;;
78131;SDS011;67381;47.672;9.380;2023-02-28T05:53:30;8.52;;;5.68;;
78131;SDS011;67381;47.672;9.380;2023-02-28T05:55:58;7.80;;;6.20;;
78131;SDS011;67381;47.672;9.380;2023-02-28T05:58:25;9.20;;;6.35;;
78131;SDS011;67381;47.672;9.380;2023-02-28T06:00:59;9.57;;;5.28;;
78131;SDS011;67381;47.672;9.380;2023-02-28T06:03:27;10.25;;;5.90;;
78131;SDS011;67381;47.672;9.380;2023-02-28T06:05:54;10.18;;;6.85;;
78131;SDS011;67381;47.672;9.380;2023-02-28T06:08:21;8.48;;;6.22;;
78131;SDS011;67381;47.672;9.380;2023-02-28T06:10:48;10.00;;;7.05;;
78131;SDS011;67381;47.672;9.380;2023-02-28T06:13:15;12.93;;;7.63;;
78131;SDS011;67381;47.672;9.380;2023-02-28T06:15:43;9.65;;;6.75;;
78131;SDS011;67381;47.672;9.380;2023-02-28T06:18:10;9.98;;;7.07;;
78131;SDS011;67381;47.672;9.380;2023-02-28T06:20:37;9.40;;;6.28;;
78131;SDS011;67381;47.672;9.380;2023-02-28T06:23:04;10.32;;;7.38;;
78131;SDS011;67381;47.672;9.380;2023-02-28T06:25:32;11.10;;;7.15;;
78131;SDS011;67381;47.672;9.380;2023-02-28T06:27:59;11.07;;;7.22;;
78131;SDS011;67381;47.672;9.380;2023-02-28T06:30:26;9.85;;;6.38;;
78131;SDS011;67381;47.672;9.380;2023-02-28T06:32:56;9.73;;;6.53;;
78131;SDS011;67381;47.672;9.380;2023-02-28T06:35:23;11.35;;;6.93;;
78131;SDS011;67381;47.672;9.380;2023-02-28T06:37:51;10.02;;;6.88;;
78131;SDS011;67381;47.672;9.380;2023-02-28T06:40:18;8.55;;;5.07;;
78131;SDS011;67381;47.672;9.380;2023-02-28T06:42:45;10.88;;;7.10;;
78131;SDS011;67381;47.672;9.380;2023-02-28T06:45:13;9.95;;;7.35;;
78131;SDS011;67381;47.672;9.380;2023-02-28T06:47:41;10.07;;;6.80;;
78131;SDS011;67381;47.672;9.380;2023-02-28T06:50:09;10.02;;;6.70;;
78131;SDS011;67381;47.672;9.380;2023-02-28T06:52:38;8.70;;;5.10;;
78131;SDS011;67381;47.672;9.380;2023-02-28T06:55:06;14.65;;;5.70;;
78131;SDS011;67381;47.672;9.380;2023-02-28T06:57:34;9.95;;;6.50;;
78131;SDS011;67381;47.672;9.380;2023-02-28T07:00:08;9.55;;;7.60;;
78131;SDS011;67381;47.672;9.380;2023-02-28T07:02:36;9.50;;;5.97;;
78131;SDS011;67381;47.672;9.380;2023-02-28T07:05:05;8.90;;;5.82;;
78131;SDS011;67381;47.672;9.380;2023-02-28T07:07:32;8.70;;;6.28;;
78131;SDS011;67381;47.672;9.380;2023-02-28T07:10:00;12.18;;;7.03;;
78131;SDS011;67381;47.672;9.380;2023-02-28T07:12:27;10.05;;;6.85;;
78131;SDS011;67381;47.672;9.380;2023-02-28T07:14:54;9.30;;;6.15;;
78131;SDS011;67381;47.672;9.380;2023-02-28T07:17:22;10.02;;;6.97;;
78131;SDS011;67381;47.672;9.380;2023-02-28T07:19:50;10.80;;;7.43;;
78131;SDS011;67381;47.672;9.380;2023-02-28T07:22:17;8.65;;;6.32;;
78131;SDS011;67381;47.672;9.380;2023-02-28T07:24:44;11.13;;;7.05;;
78131;SDS011;67381;47.672;9.380;2023-02-28T07:27:11;9.45;;;6.40;;
78131;SDS011;67381;47.672;9.380;2023-02-28T07:29:38;10.45;;;6.53;;
78131;SDS011;67381;47.672;9.380;2023-02-28T07:32:06;11.65;;;7.65;;
78131;SDS011;67381;47.672;9.380;2023-02-28T07:34:33;9.88;;;6.90;;
78131;SDS011;67381;47.672;9.380;2023-02-28T07:37:00;10.25;;;6.95;;
78131;SDS011;67381;47.672;9.380;2023-02-28T07:39:30;12.07;;;6.97;;
78131;SDS011;67381;47.672;9.380;2023-02-28T07:41:57;12.15;;;6.85;;
78131;SDS011;67381;47.672;9.380;2023-02-28T07:44:26;10.90;;;5.85;;
78131;SDS011;67381;47.672;9.380;2023-02-28T07:46:53;11.30;;;8.43;;
78131;SDS011;67381;47.672;9.380;2023-02-28T07:49:21;10.95;;;7.00;;
78131;SDS011;67381;47.672;9.380;2023-02-28T07:51:48;10.07;;;7.43;;
78131;SDS011;67381;47.672;9.380;2023-02-28T07:54:15;10.38;;;6.68;;
78131;SDS011;67381;47.672;9.380;2023-02-28T07:56:42;8.15;;;5.55;;
78131;SDS011;67381;47.672;9.380;2023-02-28T07:59:10;9.02;;;5.82;;
78131;SDS011;67381;47.672;9.380;2023-02-28T08:01:37;10.15;;;6.05;;
78131;SDS011;67381;47.672;9.380;2023-02-28T08:04:05;10.60;;;6.80;;
78131;SDS011;67381;47.672;9.380;2023-02-28T08:06:32;9.63;;;5.95;;
78131;SDS011;67381;47.672;9.380;2023-02-28T08:08:59;10.65;;;7.20;;
78131;SDS011;67381;47.672;9.380;2023-02-28T08:11:26;9.88;;;7.03;;
78131;SDS011;67381;47.672;9.380;2023-02-28T08:13:54;12.05;;;6.80;;
78131;SDS011;67381;47.672;9.380;2023-02-28T08:16:21;10.93;;;5.93;;
78131;SDS011;67381;47.672;9.380;2023-02-28T08:18:49;9.68;;;6.53;;
78131;SDS011;67381;47.672;9.380;2023-02-28T08:21:18;7.75;;;6.07;;
78131;SDS011;67381;47.672;9.380;2023-02-28T08:23:49;8.23;;;5.32;;
78131;SDS011;67381;47.672;9.380;2023-02-28T08:26:17;17.55;;;7.50;;
78131;SDS011;67381;47.672;9.380;2023-02-28T08:28:45;10.55;;;6.47;;
78131;SDS011;67381;47.672;9.380;2023-02-28T08:31:13;10.55;;;7.20;;
78131;SDS011;67381;47.672;9.380;2023-02-28T08:33:41;11.13;;;6.47;;
78131;SDS011;67381;47.672;9.380;2023-02-28T08:36:09;12.07;;;6.65;;
78131;SDS011;67381;47.672;9.380;2023-02-28T08:38:36;9.23;;;5.40;;
78131;SDS011;67381;47.672;9.380;2023-02-28T08:41:05;9.38;;;6.70;;
78131;SDS011;67381;47.672;9.380;2023-02-28T08:43:34;10.05;;;6.63;;
78131;SDS011;67381;47.672;9.380;2023-02-28T08:46:02;11.85;;;7.65;;
78131;SDS011;67381;47.672;9.380;2023-02-28T08:48:31;12.80;;;8.52;;
78131;SDS011;67381;47.672;9.380;2023-02-28T08:51:02;11.80;;;7.68;;
78131;SDS011;67381;47.672;9.380;2023-02-28T08:53:33;13.73;;;7.72;;
78131;SDS011;67381;47.672;9.380;2023-02-28T08:56:03;17.30;;;7.10;;
78131;SDS011;67381;47.672;9.380;2023-02-28T08:58:35;12.20;;;6.55;;
78131;SDS011;67381;47.672;9.380;2023-02-28T09:03:40;10.73;;;6.93;;
78131;SDS011;67381;47.672;9.380;2023-02-28T09:06:08;13.40;;;7.18;;
78131;SDS011;67381;47.672;9.380;2023-02-28T09:08:36;12.63;;;7.13;;
78131;SDS011;67381;47.672;9.380;2023-02-28T09:11:03;11.60;;;6.95;;
78131;SDS011;67381;47.672;9.380;2023-02-28T09:13:31;12.57;;;8.45;;
78131;SDS011;67381;47.672;9.380;2023-02-28T09:16:02;11.23;;;7.03;;
78131;SDS011;67381;47.672;9.380;2023-02-28T09:18:31;10.52;;;7.25;;
78131;SDS011;67381;47.672;9.380;2023-02-28T09:21:02;13.05;;;6.40;;
78131;SDS011;67381;47.672;9.380;2023-02-28T09:23:31;10.32;;;6.55;;
78131;SDS011;67381;47.672;9.380;2023-02-28T09:25:58;11.25;;;7.32;;
78131;SDS011;67381;47.672;9.380;2023-02-28T09:28:25;12.40;;;7.53;;
78131;SDS011;67381;47.672;9.380;2023-02-28T09:30:53;10.80;;;7.07;;
78131;SDS011;67381;47.672;9.380;2023-02-28T09:33:22;14.57;;;7.55;;
78131;SDS011;67381;47.672;9.380;2023-02-28T09:35:50;14.98;;;8.25;;
78131;SDS011;67381;47.672;9.380;2023-02-28T09:38:18;9.77;;;7.13;;
78131;SDS011;67381;47.672;9.380;2023-02-28T09:40:47;9.23;;;5.88;;
78131;SDS011;67381;47.672;9.380;2023-02-28T09:43:17;11.43;;;7.15;;
78131;SDS011;67381;47.672;9.380;2023-02-28T09:45:48;11.93;;;7.72;;
78131;SDS011;67381;47.672;9.380;2023-02-28T09:48:23;10.45;;;7.00;;
78131;SDS011;67381;47.672;9.380;2023-02-28T09:50:57;11.65;;;6.47;;
78131;SDS011;67381;47.672;9.380;2023-02-28T09:53:29;11.07;;;6.13;;
78131;SDS011;67381;47.672;9.380;2023-02-28T09:56:02;9.38;;;6.63;;
78131;SDS011;67381;47.672;9.380;2023-02-28T09:58:44;10.68;;;6.72;;
78131;SDS011;67381;47.672;9.380;2023-02-28T10:03:51;10.50;;;7.43;;
78131;SDS011;67381;47.672;9.380;2023-02-28T10:06:20;10.73;;;7.68;;
78131;SDS011;67381;47.672;9.380;2023-02-28T10:11:32;9.85;;;6.60;;
78131;SDS011;67381;47.672;9.380;2023-02-28T10:16:36;12.95;;;7.68;;
78131;SDS011;67381;47.672;9.380;2023-02-28T10:19:17;12.38;;;7.18;;
78131;SDS011;67381;47.672;9.380;2023-02-28T10:21:48;9.88;;;6.97;;
78131;SDS011;67381;47.672;9.380;2023-02-28T10:27:12;16.67;;;6.32;;
78131;SDS011;67381;47.672;9.380;2023-02-28T10:29:48;12.55;;;7.47;;
78131;SDS011;67381;47.672;9.380;2023-02-28T10:32:18;11.95;;;8.07;;
78131;SDS011;67381;47.672;9.380;2023-02-28T10:37:27;12.20;;;7.47;;
78131;SDS011;67381;47.672;9.380;2023-02-28T10:39:55;9.45;;;6.93;;
78131;SDS011;67381;47.672;9.380;2023-02-28T10:45:12;13.23;;;7.55;;
78131;SDS011;67381;47.672;9.380;2023-02-28T10:47:52;12.68;;;8.10;;
78131;SDS011;67381;47.672;9.380;2023-02-28T10:52:54;11.10;;;7.57;;
78131;SDS011;67381;47.672;9.380;2023-02-28T10:55:22;12.23;;;8.43;;
78131;SDS011;67381;47.672;9.380;2023-02-28T10:57:54;11.60;;;7.47;;
78131;SDS011;67381;47.672;9.380;2023-02-28T11:00:23;12.43;;;8.20;;
78131;SDS011;67381;47.672;9.380;2023-02-28T11:02:54;12.32;;;7.97;;
78131;SDS011;67381;47.672;9.380;2023-02-28T11:05:25;10.65;;;7.43;;
78131;SDS011;67381;47.672;9.380;2023-02-28T11:07:54;12.70;;;7.80;;
78131;SDS011;67381;47.672;9.380;2023-02-28T11:10:23;13.05;;;8.75;;
78131;SDS011;67381;47.672;9.380;2023-02-28T11:12:56;11.40;;;7.55;;
78131;SDS011;67381;47.672;9.380;2023-02-28T11:15:26;11.80;;;7.18;;
78131;SDS011;67381;47.672;9.380;2023-02-28T11:20:30;11.38;;;7.72;;
78131;SDS011;67381;47.672;9.380;2023-02-28T11:23:00;14.07;;;7.70;;
78131;SDS011;67381;47.672;9.380;2023-02-28T11:25:33;12.60;;;8.25;;
78131;SDS011;67381;47.672;9.380;2023-02-28T11:28:03;11.50;;;6.55;;
78131;SDS011;67381;47.672;9.380;2023-02-28T11:30:35;12.35;;;9.02;;
78131;SDS011;67381;47.672;9.380;2023-02-28T11:33:23;12.68;;;8.27;;
78131;SDS011;67381;47.672;9.380;2023-02-28T11:35:57;11.70;;;7.82;;
78131;SDS011;67381;47.672;9.380;2023-02-28T11:38:29;12.57;;;8.32;;
78131;SDS011;67381;47.672;9.380;2023-02-28T11:41:21;11.73;;;7.93;;
78131;SDS011;67381;47.672;9.380;2023-02-28T11:46:30;13.13;;;8.85;;
78131;SDS011;67381;47.672;9.380;2023-02-28T11:49:24;11.23;;;7.05;;
78131;SDS011;67381;47.672;9.380;2023-02-28T11:52:00;13.98;;;7.80;;
78131;SDS011;67381;47.672;9.380;2023-02-28T11:54:44;13.40;;;8.02;;
78131;SDS011;67381;47.672;9.380;2023-02-28T12:00:01;13.90;;;9.00;;
78131;SDS011;67381;47.672;9.380;2023-02-28T12:02:45;12.10;;;8.38;;
78131;SDS011;67381;47.672;9.380;2023-02-28T12:05:29;14.65;;;7.63;;
78131;SDS011;67381;47.672;9.380;2023-02-28T12:11:06;12.55;;;7.93;;
78131;SDS011;67381;47.672;9.380;2023-02-28T12:13:48;14.13;;;7.30;;
78131;SDS011;67381;47.672;9.380;2023-02-28T12:18:59;12.52;;;8.23;;
78131;SDS011;67381;47.672;9.380;2023-02-28T12:24:31;14.82;;;8.68;;
78131;SDS011;67381;47.672;9.380;2023-02-28T12:27:16;13.50;;;7.53;;
78131;SDS011;67381;47.672;9.380;2023-02-28T12:29:50;13.55;;;9.25;;
78131;SDS011;67381;47.672;9.380;2023-02-28T12:32:24;15.32;;;8.80;;
78131;SDS011;67381;47.672;9.380;2023-02-28T12:34:55;13.70;;;8.68;;
78131;SDS011;67381;47.672;9.380;2023-02-28T12:37:39;14.63;;;9.35;;
78131;SDS011;67381;47.672;9.380;2023-02-28T12:40:13;13.35;;;9.32;;
78131;SDS011;67381;47.672;9.380;2023-02-28T12:42:47;13.00;;;8.57;;
78131;SDS011;67381;47.672;9.380;2023-02-28T12:45:27;17.10;;;9.98;;
78131;SDS011;67381;47.672;9.380;2023-02-28T12:48:06;13.15;;;9.27;;
78131;SDS011;67381;47.672;9.380;2023-02-28T12:50:35;14.85;;;8.65;;
78131;SDS011;67381;47.672;9.380;2023-02-28T12:53:09;15.93;;;8.85;;
78131;SDS011;67381;47.672;9.380;2023-02-28T12:55:49;13.18;;;8.45;;
78131;SDS011;67381;47.672;9.380;2023-02-28T13:01:20;17.67;;;8.75;;
78131;SDS011;67381;47.672;9.380;2023-02-28T13:09:24;15.13;;;8.43;;
78131;SDS011;67381;47.672;9.380;2023-02-28T13:11:53;15.07;;;9.52;;
78131;SDS011;67381;47.672;9.380;2023-02-28T13:17:03;14.60;;;9.75;;
78131;SDS011;67381;47.672;9.380;2023-02-28T13:22:20;16.33;;;10.15;;
78131;SDS011;67381;47.672;9.380;2023-02-28T13:27:50;14.40;;;9.95;;
78131;SDS011;67381;47.672;9.380;2023-02-28T13:36:01;14.70;;;9.27;;
78131;SDS011;67381;47.672;9.380;2023-02-28T13:46:38;15.00;;;9.52;;
78131;SDS011;67381;47.672;9.380;2023-02-28T13:49:26;12.05;;;8.20;;
78131;SDS011;67381;47.672;9.380;2023-02-28T13:57:42;16.15;;;9.50;;
78131;SDS011;67381;47.672;9.380;2023-02-28T14:05:29;14.80;;;9.45;;
78131;SDS011;67381;47.672;9.380;2023-02-28T14:07:58;14.50;;;10.02;;
78131;SDS011;67381;47.672;9.380;2023-02-28T14:10:28;16.42;;;10.48;;
78131;SDS011;67381;47.672;9.380;2023-02-28T14:13:00;14.18;;;9.48;;
78131;SDS011;67381;47.672;9.380;2023-02-28T14:18:27;14.90;;;8.77;;
78131;SDS011;67381;47.672;9.380;2023-02-28T14:27:28;14.95;;;10.02;;
78131;SDS011;67381;47.672;9.380;2023-02-28T14:29:59;14.50;;;8.93;;
78131;SDS011;67381;47.672;9.380;2023-02-28T14:35:48;12.70;;;9.27;;
78131;SDS011;67381;47.672;9.380;2023-02-28T14:38:22;16.60;;;10.50;;
78131;SDS011;67381;47.672;9.380;2023-02-28T14:40:52;19.02;;;12.00;;
78131;SDS011;67381;47.672;9.380;2023-02-28T14:43:24;20.20;;;10.90;;
78131;SDS011;67381;47.672;9.380;2023-02-28T14:45:54;21.95;;;12.90;;
78131;SDS011;67381;47.672;9.380;2023-02-28T14:48:23;21.45;;;12.52;;
78131;SDS011;67381;47.672;9.380;2023-02-28T14:50:52;19.42;;;11.32;;
78131;SDS011;67381;47.672;9.380;2023-02-28T14:53:22;16.92;;;12.10;;
78131;SDS011;67381;47.672;9.380;2023-02-28T14:55:51;20.48;;;12.27;;
78131;SDS011;67381;47.672;9.380;2023-02-28T14:58:25;18.15;;;12.05;;
78131;SDS011;67381;47.672;9.380;2023-02-28T15:00:54;16.73;;;10.93;;
78131;SDS011;67381;47.672;9.380;2023-02-28T15:03:24;17.63;;;11.88;;
78131;SDS011;67381;47.672;9.380;2023-02-28T15:05:59;18.30;;;11.48;;
78131;SDS011;67381;47.672;9.380;2023-02-28T15:08:29;17.08;;;11.85;;
78131;SDS011;67381;47.672;9.380;2023-02-28T15:10:59;16.27;;;11.35;;
78131;SDS011;67381;47.672;9.380;2023-02-28T15:13:52;19.42;;;11.68;;
78131;SDS011;67381;47.672;9.380;2023-02-28T15:16:23;17.10;;;11.57;;
78131;SDS011;67381;47.672;9.380;2023-02-28T15:18:56;18.55;;;12.13;;
78131;SDS011;67381;47.672;9.380;2023-02-28T15:21:29;19.83;;;12.15;;
78131;SDS011;67381;47.672;9.380;2023-02-28T15:26:41;16.60;;;11.40;;
78131;SDS011;67381;47.672;9.380;2023-02-28T15:29:20;19.98;;;12.68;;
78131;SDS011;67381;47.672;9.380;2023-02-28T15:31:49;18.25;;;10.98;;
78131;SDS011;67381;47.672;9.380;2023-02-28T15:34:35;19.00;;;10.75;;
78131;SDS011;67381;47.672;9.380;2023-02-28T15:39:53;19.77;;;11.73;;
78131;SDS011;67381;47.672;9.380;2023-02-28T15:42:23;16.63;;;11.20;;
78131;SDS011;67381;47.672;9.380;2023-02-28T15:44:54;18.63;;;11.02;;
78131;SDS011;67381;47.672;9.380;2023-02-28T15:47:22;15.18;;;10.48;;
78131;SDS011;67381;47.672;9.380;2023-02-28T15:49:52;18.73;;;11.90;;
78131;SDS011;67381;47.672;9.380;2023-02-28T15:52:39;17.23;;;11.07;;
78131;SDS011;67381;47.672;9.380;2023-02-28T15:57:36;18.02;;;9.80;;
78131;SDS011;67381;47.672;9.380;2023-02-28T16:00:09;18.65;;;11.15;;
78131;SDS011;67381;47.672;9.380;2023-02-28T16:02:39;18.58;;;12.45;;
78131;SDS011;67381;47.672;9.380;2023-02-28T16:07:37;17.05;;;9.27;;
78131;SDS011;67381;47.672;9.380;2023-02-28T16:10:06;17.90;;;10.98;;
78131;SDS011;67381;47.672;9.380;2023-02-28T16:12:34;18.27;;;11.23;;
78131;SDS011;67381;47.672;9.380;2023-02-28T16:15:06;17.13;;;10.45;;
78131;SDS011;67381;47.672;9.380;2023-02-28T16:17:37;20.38;;;10.65;;
78131;SDS011;67381;47.672;9.380;2023-02-28T16:20:12;18.42;;;10.45;;
78131;SDS011;67381;47.672;9.380;2023-02-28T16:22:41;19.60;;;10.65;;
78131;SDS011;67381;47.672;9.380;2023-02-28T16:25:13;19.15;;;11.43;;
78131;SDS011;67381;47.672;9.380;2023-02-28T16:27:41;17.90;;;9.57;;
78131;SDS011;67381;47.672;9.380;2023-02-28T16:30:21;17.33;;;11.32;;
78131;SDS011;67381;47.672;9.380;2023-02-28T16:32:51;14.25;;;10.10;;
78131;SDS011;67381;47.672;9.380;2023-02-28T16:35:20;15.65;;;10.95;;
78131;SDS011;67381;47.672;9.380;2023-02-28T16:37:48;19.17;;;12.25;;
78131;SDS011;67381;47.672;9.380;2023-02-28T16:40:18;16.80;;;10.48;;
78131;SDS011;67381;47.672;9.380;2023-02-28T16:42:48;14.05;;;9.48;;
78131;SDS011;67381;47.672;9.380;2023-02-28T16:45:18;19.80;;;11.25;;
78131;SDS011;67381;47.672;9.380;2023-02-28T16:47:48;19.73;;;11.18;;
78131;SDS011;67381;47.672;9.380;2023-02-28T16:50:17;15.60;;;10.50;;
78131;SDS011;67381;47.672;9.380;2023-02-28T16:52:46;16.05;;;10.30;;
78131;SDS011;67381;47.672;9.380;2023-02-28T16:55:13;17.58;;;10.98;;
78131;SDS011;67381;47.672;9.380;2023-02-28T16:57:40;17.75;;;10.98;;
78131;SDS011;67381;47.672;9.380;2023-02-28T17:00:10;17.05;;;10.38;;
78131;SDS011;67381;47.672;9.380;2023-02-28T17:02:39;16.80;;;10.50;;
78131;SDS011;67381;47.672;9.380;2023-02-28T17:05:10;19.75;;;10.70;;
78131;SDS011;67381;47.672;9.380;2023-02-28T17:07:39;17.05;;;11.38;;
78131;SDS011;67381;47.672;9.380;2023-02-28T17:10:14;18.55;;;10.48;;
78131;SDS011;67381;47.672;9.380;2023-02-28T17:12:45;23.52;;;12.75;;
78131;SDS011;67381;47.672;9.380;2023-02-28T17:15:14;18.17;;;10.35;;
78131;SDS011;67381;47.672;9.380;2023-02-28T17:17:42;16.20;;;10.95;;
78131;SDS011;67381;47.672;9.380;2023-02-28T17:20:14;15.73;;;10.48;;
78131;SDS011;67381;47.672;9.380;2023-02-28T17:22:54;18.83;;;10.73;;
78131;SDS011;67381;47.672;9.380;2023-02-28T17:25:23;20.35;;;10.48;;